createdAt,value
2017-07-28T00:00:07.927Z,4.53
2017-07-28T00:02:35.927Z,3.27
2017-07-28T00:05:03.608Z,4.23
2017-07-28T00:07:31.330Z,3.70
2017-07-28T00:09:59.138Z,2.63
2017-07-28T00:12:26.869Z,2.23
2017-07-28T00:14:54.530Z,2.00
2017-07-28T00:17:22.497Z,3.13
2017-07-28T00:19:50.405Z,1.93
2017-07-28T00:22:18.111Z,2.83
2017-07-28T00:24:46.097Z,2.10
2017-07-28T00:27:13.897Z,5.10
2017-07-28T00:29:41.831Z,4.80
2017-07-28T00:32:09.627Z,7.03
2017-07-28T00:34:37.605Z,8.20
2017-07-28T00:37:05.261Z,2.40
2017-07-28T00:39:33.302Z,2.30
2017-07-28T00:42:01.005Z,5.70
2017-07-28T00:44:28.838Z,7.10
2017-07-28T00:46:56.581Z,2.10
2017-07-28T00:49:24.571Z,2.33
2017-07-28T00:51:52.310Z,2.50
2017-07-28T00:54:20.182Z,2.23
2017-07-28T00:56:47.990Z,2.70
2017-07-28T00:59:15.715Z,4.03
2017-07-28T01:01:43.706Z,3.93
2017-07-28T01:04:11.650Z,2.40
2017-07-28T01:06:39.765Z,1.83
2017-07-28T01:09:07.744Z,4.17
2017-07-28T01:11:35.475Z,3.53
2017-07-28T01:14:03.193Z,3.03
2017-07-28T01:16:30.982Z,5.13
2017-07-28T01:18:58.808Z,4.77
2017-07-28T01:21:26.648Z,7.33
2017-07-28T01:23:54.383Z,2.80
2017-07-28T01:26:22.402Z,8.10
2017-07-28T01:28:50.041Z,2.90
2017-07-28T01:31:17.929Z,8.87
2017-07-28T01:33:45.702Z,8.00
2017-07-28T01:36:13.455Z,6.73
2017-07-28T01:38:41.506Z,2.37
2017-07-28T01:41:09.257Z,6.63
2017-07-28T01:43:37.220Z,3.30
2017-07-28T01:46:04.924Z,2.10
2017-07-28T01:48:32.754Z,2.20
2017-07-28T01:51:01.620Z,2.57
2017-07-28T01:53:29.552Z,2.17
2017-07-28T01:55:57.280Z,6.10
2017-07-28T01:58:25.286Z,9.67
2017-07-28T02:00:53.314Z,2.37
2017-07-28T02:03:21.210Z,2.00
2017-07-28T02:05:49.093Z,8.13
2017-07-28T02:08:17.166Z,3.07
2017-07-28T02:10:45.008Z,4.87
2017-07-28T02:13:12.744Z,4.10
2017-07-28T02:15:40.765Z,2.60
2017-07-28T02:18:08.610Z,3.67
2017-07-28T02:20:36.352Z,3.57
2017-07-28T02:23:04.365Z,9.70
2017-07-28T02:25:32.084Z,3.00
2017-07-28T02:27:59.910Z,2.73
2017-07-28T02:30:27.868Z,6.87
2017-07-28T02:32:55.835Z,2.60
2017-07-28T02:35:23.552Z,2.47
2017-07-28T02:37:51.419Z,2.80
2017-07-28T02:40:19.282Z,5.50
2017-07-28T02:42:47.096Z,5.10
2017-07-28T02:45:15.065Z,4.80
2017-07-28T02:47:42.963Z,5.20
2017-07-28T02:50:10.903Z,9.77
2017-07-28T02:52:38.944Z,3.73
2017-07-28T02:55:06.888Z,4.00
2017-07-28T02:57:34.830Z,8.70
2017-07-28T03:00:02.782Z,2.83
2017-07-28T03:02:30.614Z,7.17
2017-07-28T03:04:58.512Z,2.83
2017-07-28T03:07:26.442Z,6.40
2017-07-28T03:09:54.388Z,4.80
2017-07-28T03:12:22.141Z,6.23
2017-07-28T03:14:50.172Z,5.47
2017-07-28T03:17:17.913Z,4.20
2017-07-28T03:19:45.921Z,7.83
2017-07-28T03:22:13.949Z,4.80
2017-07-28T03:24:41.644Z,6.33
2017-07-28T03:27:09.316Z,23.43
2017-07-28T03:29:37.025Z,4.10
2017-07-28T03:32:05.056Z,7.90
2017-07-28T03:34:32.682Z,4.60
2017-07-28T03:37:00.551Z,19.67
2017-07-28T03:39:28.253Z,5.00
2017-07-28T03:41:55.902Z,3.70
2017-07-28T03:44:23.928Z,6.80
2017-07-28T03:46:51.636Z,20.07
2017-07-28T03:49:19.361Z,5.90
2017-07-28T03:51:47.328Z,4.00
2017-07-28T03:54:15.239Z,3.30
2017-07-28T03:56:43.087Z,9.40
2017-07-28T03:59:10.966Z,5.87
2017-07-28T04:01:39.044Z,3.57
2017-07-28T04:04:06.812Z,3.47
2017-07-28T04:06:34.562Z,3.80
2017-07-28T04:09:02.439Z,7.90
2017-07-28T04:11:30.165Z,5.43
2017-07-28T04:13:58.228Z,4.67
2017-07-28T04:16:26.062Z,20.33
2017-07-28T04:18:53.684Z,4.53
2017-07-28T04:21:21.407Z,3.03
2017-07-28T04:23:49.298Z,8.93
2017-07-28T04:26:17.305Z,4.90
2017-07-28T04:28:45.376Z,3.37
2017-07-28T04:31:12.985Z,5.07
2017-07-28T04:33:40.601Z,3.40
2017-07-28T04:36:08.454Z,3.13
2017-07-28T04:38:36.422Z,3.50
2017-07-28T04:41:04.021Z,3.27
2017-07-28T04:43:31.678Z,3.73
2017-07-28T04:45:59.319Z,4.23
2017-07-28T04:48:26.943Z,4.77
2017-07-28T04:50:54.654Z,4.43
2017-07-28T04:53:22.263Z,2.70
2017-07-28T04:55:49.869Z,2.57
2017-07-28T04:58:17.553Z,3.33
2017-07-28T05:00:45.310Z,4.50
2017-07-28T05:03:12.968Z,3.93
2017-07-28T05:05:40.629Z,3.40
2017-07-28T05:08:08.253Z,7.13
2017-07-28T05:10:35.880Z,2.73
2017-07-28T05:13:03.555Z,3.13
2017-07-28T05:15:31.168Z,4.40
2017-07-28T05:17:58.799Z,3.33
2017-07-28T05:20:26.463Z,3.90
2017-07-28T05:22:54.062Z,3.43
2017-07-28T05:25:21.672Z,3.80
2017-07-28T05:27:49.332Z,4.80
2017-07-28T05:30:16.961Z,5.50
2017-07-28T05:32:44.572Z,5.87
2017-07-28T05:35:12.236Z,4.87
2017-07-28T05:37:39.860Z,2.67
2017-07-28T05:40:07.477Z,4.43
2017-07-28T05:42:35.158Z,3.63
2017-07-28T05:45:02.779Z,2.67
2017-07-28T05:47:30.388Z,2.80
2017-07-28T05:49:58.142Z,3.17
2017-07-28T05:52:25.784Z,17.43
2017-07-28T05:54:53.390Z,2.50
2017-07-28T05:57:21.063Z,6.30
2017-07-28T05:59:48.673Z,2.20
2017-07-28T06:02:16.371Z,3.23
2017-07-28T06:04:44.045Z,6.07
2017-07-28T06:07:11.669Z,3.10
2017-07-28T06:09:39.277Z,7.13
2017-07-28T06:12:06.943Z,5.20
2017-07-28T06:14:34.608Z,3.00
2017-07-28T06:17:02.388Z,2.60
2017-07-28T06:19:30.049Z,2.70
2017-07-28T06:21:57.651Z,7.57
2017-07-28T06:24:25.255Z,2.57
2017-07-28T06:26:52.983Z,2.00
2017-07-28T06:29:20.585Z,2.10
2017-07-28T06:31:48.182Z,3.53
2017-07-28T06:34:15.873Z,10.93
2017-07-28T06:36:43.490Z,2.03
2017-07-28T06:39:11.103Z,7.97
2017-07-28T06:41:38.936Z,3.27
2017-07-28T06:44:06.537Z,2.20
2017-07-28T06:46:34.141Z,2.07
2017-07-28T06:49:01.800Z,4.57
2017-07-28T06:51:29.385Z,2.97
2017-07-28T06:53:57.009Z,6.23
2017-07-28T06:56:24.690Z,4.57
2017-07-28T06:58:52.283Z,3.53
2017-07-28T07:01:19.888Z,2.10
2017-07-28T07:03:47.616Z,5.03
2017-07-28T07:06:15.224Z,2.70
2017-07-28T07:08:42.833Z,3.40
2017-07-28T07:11:10.494Z,11.90
2017-07-28T07:13:38.174Z,24.03
2017-07-28T07:16:05.786Z,2.50
2017-07-28T07:18:33.447Z,10.07
2017-07-28T07:21:01.202Z,4.53
2017-07-28T07:23:28.815Z,14.27
2017-07-28T07:25:56.467Z,4.00
2017-07-28T07:28:24.077Z,4.20
2017-07-28T07:30:51.676Z,5.57
2017-07-28T07:33:19.355Z,4.50
2017-07-28T07:35:46.969Z,6.43
2017-07-28T07:38:14.578Z,10.13
2017-07-28T07:40:42.255Z,5.10
2017-07-28T07:43:09.923Z,6.70
2017-07-28T07:45:37.527Z,12.13
2017-07-28T07:48:05.174Z,25.47
2017-07-28T07:50:32.780Z,7.07
2017-07-28T07:53:00.397Z,5.20
2017-07-28T07:55:28.053Z,2.90
2017-07-28T07:57:55.650Z,7.73
2017-07-28T08:00:23.249Z,12.53
2017-07-28T08:02:50.915Z,2.70
2017-07-28T08:05:18.537Z,4.50
2017-07-28T08:07:46.133Z,8.23
2017-07-28T08:10:13.970Z,3.83
2017-07-28T08:12:41.572Z,9.20
2017-07-28T08:15:09.169Z,2.57
2017-07-28T08:17:36.843Z,7.10
2017-07-28T08:20:04.485Z,18.93
2017-07-28T08:22:32.129Z,2.60
2017-07-28T08:24:59.824Z,3.10
2017-07-28T08:27:27.456Z,10.70
2017-07-28T08:29:55.084Z,2.60
2017-07-28T08:32:22.738Z,3.03
2017-07-28T08:34:50.359Z,2.50
2017-07-28T08:37:17.961Z,3.60
2017-07-28T08:39:46.096Z,2.00
2017-07-28T08:42:13.698Z,2.40
2017-07-28T08:44:41.298Z,7.30
2017-07-28T08:47:08.981Z,4.23
2017-07-28T08:49:36.595Z,2.57
2017-07-28T08:52:04.211Z,7.50
2017-07-28T08:54:31.908Z,6.70
2017-07-28T08:56:59.538Z,4.10
2017-07-28T08:59:27.153Z,4.00
2017-07-28T09:01:54.827Z,1.97
2017-07-28T09:04:22.421Z,2.77
2017-07-28T09:06:50.070Z,5.67
2017-07-28T09:09:17.756Z,3.13
2017-07-28T09:11:45.363Z,4.67
2017-07-28T09:14:12.974Z,12.03
2017-07-28T09:16:40.650Z,3.37
2017-07-28T09:19:08.274Z,4.80
2017-07-28T09:21:35.926Z,8.20
2017-07-28T09:24:03.622Z,4.47
2017-07-28T09:26:31.221Z,6.83
2017-07-28T09:28:58.840Z,9.47
2017-07-28T09:31:26.536Z,4.07
2017-07-28T09:33:54.157Z,4.70
2017-07-28T09:36:21.764Z,3.33
2017-07-28T09:38:49.507Z,11.93
2017-07-28T09:41:17.141Z,3.00
2017-07-28T09:43:44.760Z,2.93
2017-07-28T09:46:12.478Z,4.17
2017-07-28T09:48:40.077Z,5.73
2017-07-28T09:51:07.699Z,2.40
2017-07-28T09:53:35.375Z,7.40
2017-07-28T09:56:03.005Z,2.90
2017-07-28T09:58:30.626Z,4.43
2017-07-28T10:00:58.319Z,6.07
2017-07-28T10:03:25.936Z,5.23
2017-07-28T10:05:53.560Z,2.80
2017-07-28T10:08:21.308Z,4.07
2017-07-28T10:10:48.917Z,3.03
2017-07-28T10:13:16.516Z,6.20
2017-07-28T10:15:44.190Z,8.73
2017-07-28T10:18:11.817Z,5.30
2017-07-28T10:20:39.448Z,2.83
2017-07-28T10:23:07.261Z,4.00
2017-07-28T10:25:34.887Z,4.60
2017-07-28T10:28:02.521Z,12.60
2017-07-28T10:30:30.197Z,6.43
2017-07-28T10:32:57.814Z,2.63
2017-07-28T10:35:25.425Z,3.17
2017-07-28T10:37:53.113Z,3.70
2017-07-28T10:40:20.720Z,3.80
2017-07-28T10:42:48.374Z,4.73
2017-07-28T10:45:16.042Z,4.23
2017-07-28T10:47:43.779Z,3.87
2017-07-28T10:50:11.390Z,4.60
2017-07-28T10:52:39.066Z,3.03
2017-07-28T10:55:06.692Z,4.37
2017-07-28T10:57:34.309Z,11.53
2017-07-28T11:00:01.990Z,5.13
2017-07-28T11:02:29.689Z,6.90
2017-07-28T11:04:57.327Z,4.40
2017-07-28T11:07:25.021Z,7.43
2017-07-28T11:09:52.695Z,2.80
2017-07-28T11:12:20.333Z,7.97
2017-07-28T11:14:48.167Z,3.43
2017-07-28T11:17:15.908Z,5.43
2017-07-28T11:19:43.542Z,5.70
2017-07-28T11:22:12.932Z,3.57
2017-07-28T11:24:40.812Z,6.37
2017-07-28T11:27:08.479Z,4.03
2017-07-28T11:29:36.162Z,3.73
2017-07-28T11:32:03.957Z,4.27
2017-07-28T11:34:31.710Z,2.50
2017-07-28T11:36:59.383Z,3.20
2017-07-28T11:39:27.116Z,3.07
2017-07-28T11:41:54.892Z,6.30
2017-07-28T11:44:22.640Z,4.90
2017-07-28T11:46:54.666Z,3.33
2017-07-28T11:49:22.339Z,3.60
2017-07-28T11:51:51.131Z,2.77
2017-07-28T11:54:19.006Z,8.83
2017-07-28T11:56:46.650Z,3.97
2017-07-28T11:59:14.453Z,3.40
2017-07-28T12:01:42.194Z,3.70
2017-07-28T12:04:09.884Z,3.13
2017-07-28T12:06:37.563Z,3.70
2017-07-28T12:09:06.042Z,4.03
2017-07-28T12:11:33.927Z,21.33
2017-07-28T12:14:02.670Z,3.17
2017-07-28T12:16:30.370Z,3.53
2017-07-28T12:18:57.979Z,6.57
2017-07-28T12:21:26.071Z,5.70
2017-07-28T12:23:54.041Z,5.60
2017-07-28T12:26:21.869Z,3.93
2017-07-28T12:28:49.989Z,4.07
2017-07-28T12:31:17.847Z,4.87
2017-07-28T12:33:45.441Z,4.97
2017-07-28T12:36:13.171Z,5.30
2017-07-28T12:38:40.869Z,10.60
2017-07-28T12:41:08.470Z,3.50
2017-07-28T12:43:36.176Z,4.80
2017-07-28T12:46:03.875Z,3.53
2017-07-28T12:48:31.486Z,7.07
2017-07-28T12:50:59.091Z,3.40
2017-07-28T12:53:26.759Z,5.43
2017-07-28T12:55:54.369Z,8.27
2017-07-28T12:58:21.980Z,3.90
2017-07-28T13:00:49.646Z,12.03
2017-07-28T13:03:17.245Z,5.13
2017-07-28T13:05:44.862Z,4.13
2017-07-28T13:08:13.347Z,5.73
2017-07-28T13:10:41.211Z,7.40
2017-07-28T13:13:08.850Z,4.90
2017-07-28T13:15:36.613Z,8.63
2017-07-28T13:18:04.230Z,5.20
2017-07-28T13:20:31.841Z,8.70
2017-07-28T13:22:59.540Z,6.20
2017-07-28T13:25:27.169Z,6.77
2017-07-28T13:27:54.783Z,19.37
2017-07-28T13:30:22.449Z,5.30
2017-07-28T13:32:50.046Z,8.27
2017-07-28T13:35:17.677Z,5.73
2017-07-28T13:37:45.382Z,21.00
2017-07-28T13:40:12.995Z,4.83
2017-07-28T13:42:40.619Z,8.23
2017-07-28T13:45:08.305Z,12.30
2017-07-28T13:47:35.911Z,25.70
2017-07-28T13:50:03.528Z,7.37
2017-07-28T13:52:31.641Z,12.13
2017-07-28T13:54:59.252Z,6.27
2017-07-28T13:57:26.854Z,7.23
2017-07-28T13:59:54.548Z,7.50
2017-07-28T14:02:22.164Z,24.97
2017-07-28T14:04:49.797Z,11.83
2017-07-28T14:07:17.494Z,7.10
2017-07-28T14:09:45.119Z,6.60
2017-07-28T14:12:12.727Z,8.80
2017-07-28T14:14:40.517Z,12.53
2017-07-28T14:17:08.127Z,8.60
2017-07-28T14:19:35.753Z,7.87
2017-07-28T14:22:03.600Z,10.50
2017-07-28T14:24:31.345Z,9.60
2017-07-28T14:26:58.969Z,8.27
2017-07-28T14:29:26.656Z,36.20
2017-07-28T14:31:54.674Z,11.10
2017-07-28T14:34:22.325Z,9.67
2017-07-28T14:36:50.002Z,15.30
2017-07-28T14:39:17.613Z,12.20
2017-07-28T14:41:45.237Z,13.50
2017-07-28T14:44:12.901Z,12.37
2017-07-28T14:46:40.649Z,7.50
2017-07-28T14:49:08.281Z,13.17
2017-07-28T14:51:35.967Z,11.80
2017-07-28T14:54:03.588Z,9.27
2017-07-28T14:56:31.229Z,10.43
2017-07-28T14:58:58.888Z,8.30
2017-07-28T15:01:26.532Z,8.10
2017-07-28T15:03:54.146Z,6.97
2017-07-28T15:06:21.820Z,8.20
2017-07-28T15:08:49.446Z,25.23
2017-07-28T15:11:17.063Z,7.40
2017-07-28T15:13:44.778Z,8.00
2017-07-28T15:16:12.482Z,16.53
2017-07-28T15:18:40.086Z,11.40
2017-07-28T15:21:07.775Z,12.10
2017-07-28T15:23:35.438Z,26.20
2017-07-28T15:26:03.357Z,13.20
2017-07-28T15:28:31.103Z,21.03
2017-07-28T15:30:58.706Z,8.67
2017-07-28T15:33:26.336Z,7.60
2017-07-28T15:35:53.995Z,6.50
2017-07-28T15:38:21.610Z,12.20
2017-07-28T15:40:49.215Z,12.10
2017-07-28T15:43:16.892Z,18.07
2017-07-28T15:45:44.518Z,11.00
2017-07-28T15:48:12.177Z,15.90
2017-07-28T15:50:39.842Z,13.57
2017-07-28T15:53:07.519Z,18.00
2017-07-28T15:55:35.191Z,14.30
2017-07-28T15:58:03.052Z,24.30
2017-07-28T16:00:31.875Z,20.60
2017-07-28T16:03:00.688Z,26.43
2017-07-28T16:05:29.533Z,21.47
2017-07-28T16:07:57.673Z,12.10
2017-07-28T16:10:26.076Z,14.03
2017-07-28T16:12:54.087Z,12.23
2017-07-28T16:15:22.998Z,9.23
2017-07-28T16:17:53.449Z,14.17
2017-07-28T16:20:23.558Z,15.70
2017-07-28T16:22:51.212Z,7.73
2017-07-28T16:25:18.828Z,10.10
2017-07-28T16:27:46.496Z,6.63
2017-07-28T16:30:14.096Z,17.30
2017-07-28T16:32:41.703Z,10.07
2017-07-28T16:35:09.466Z,10.33
2017-07-28T16:37:37.094Z,9.87
2017-07-28T16:40:04.709Z,20.83
2017-07-28T16:42:32.392Z,11.73
2017-07-28T16:45:00.002Z,11.00
2017-07-28T16:47:27.593Z,8.07
2017-07-28T16:49:55.272Z,14.50
2017-07-28T16:52:22.910Z,12.07
2017-07-28T16:54:50.573Z,12.20
2017-07-28T16:57:18.263Z,11.97
2017-07-28T16:59:45.888Z,10.83
2017-07-28T17:02:14.246Z,54.23
2017-07-28T17:04:41.929Z,12.87
2017-07-28T17:07:09.541Z,20.80
2017-07-28T17:09:37.170Z,83.00
2017-07-28T17:12:04.846Z,36.77
2017-07-28T17:14:32.482Z,28.63
2017-07-28T17:17:00.126Z,79.63
2017-07-28T17:19:27.847Z,61.60
2017-07-28T17:21:55.468Z,45.93
2017-07-28T17:24:23.157Z,22.97
2017-07-28T17:26:50.818Z,21.00
2017-07-28T17:29:18.439Z,13.87
2017-07-28T17:31:46.075Z,37.93
2017-07-28T17:34:13.782Z,9.80
2017-07-28T17:36:41.457Z,20.77
2017-07-28T17:39:09.113Z,19.33
2017-07-28T17:41:36.811Z,40.37
2017-07-28T17:44:04.438Z,20.20
2017-07-28T17:46:32.073Z,17.57
2017-07-28T17:48:59.796Z,10.03
2017-07-28T17:51:27.410Z,12.73
2017-07-28T17:53:55.037Z,24.73
2017-07-28T17:56:22.725Z,11.13
2017-07-28T17:58:50.362Z,13.97
2017-07-28T18:01:17.986Z,17.40
2017-07-28T18:03:45.675Z,12.93
2017-07-28T18:06:13.315Z,13.33
2017-07-28T18:08:40.947Z,15.63
2017-07-28T18:11:08.663Z,16.70
2017-07-28T18:13:36.268Z,10.20
2017-07-28T18:16:03.911Z,17.97
2017-07-28T18:18:31.577Z,15.40
2017-07-28T18:20:59.260Z,16.63
2017-07-28T18:23:26.862Z,18.60
2017-07-28T18:25:54.546Z,23.33
2017-07-28T18:28:22.185Z,15.10
2017-07-28T18:30:49.934Z,18.40
2017-07-28T18:33:17.924Z,12.63
2017-07-28T18:35:45.540Z,15.27
2017-07-28T18:38:13.158Z,13.47
2017-07-28T18:40:40.821Z,15.10
2017-07-28T18:43:08.447Z,14.23
2017-07-28T18:45:36.077Z,22.77
2017-07-28T18:48:03.894Z,16.47
2017-07-28T18:50:31.516Z,22.33
2017-07-28T18:52:59.132Z,23.40
2017-07-28T18:55:26.823Z,21.67
2017-07-28T18:57:54.427Z,19.70
2017-07-28T19:00:22.071Z,37.17
2017-07-28T19:02:49.770Z,28.87
2017-07-28T19:05:17.409Z,20.93
2017-07-28T19:07:45.078Z,23.87
2017-07-28T19:10:12.760Z,23.00
2017-07-28T19:12:40.392Z,17.93
2017-07-28T19:15:08.006Z,23.43
2017-07-28T19:17:35.692Z,19.13
2017-07-28T19:20:03.314Z,18.70
2017-07-28T19:22:30.985Z,16.30
2017-07-28T19:24:58.654Z,23.83
2017-07-28T19:27:26.271Z,24.07
2017-07-28T19:29:53.881Z,19.43
2017-07-28T19:32:21.555Z,23.60
2017-07-28T19:34:49.182Z,21.43
2017-07-28T19:37:16.806Z,20.17
2017-07-28T19:39:44.513Z,22.27
2017-07-28T19:42:12.126Z,22.97
2017-07-28T19:44:39.767Z,21.53
2017-07-28T19:47:07.439Z,24.47
2017-07-28T19:49:35.080Z,23.17
2017-07-28T19:52:02.719Z,21.60
2017-07-28T19:54:30.411Z,20.37
2017-07-28T19:56:58.157Z,14.00
2017-07-28T19:59:25.777Z,23.60
2017-07-28T20:01:53.686Z,33.37
2017-07-28T20:04:21.307Z,18.80
2017-07-28T20:06:48.921Z,20.13
2017-07-28T20:09:16.821Z,13.83
2017-07-28T20:11:44.760Z,15.70
2017-07-28T20:14:12.377Z,29.43
2017-07-28T20:16:40.055Z,37.23
2017-07-28T20:19:07.741Z,22.33
2017-07-28T20:21:35.801Z,16.50
2017-07-28T20:24:03.532Z,22.80
2017-07-28T20:26:31.152Z,26.13
2017-07-28T20:28:58.769Z,22.53
2017-07-28T20:31:26.465Z,31.83
2017-07-28T20:33:54.207Z,19.30
2017-07-28T20:36:21.813Z,25.43
2017-07-28T20:38:49.475Z,19.13
2017-07-28T20:41:17.121Z,24.17
2017-07-28T20:43:44.740Z,21.77
2017-07-28T20:46:12.388Z,19.93
2017-07-28T20:48:40.259Z,24.60
2017-07-28T20:51:07.959Z,18.20
2017-07-28T20:53:35.995Z,17.93
2017-07-28T20:56:03.713Z,23.33
2017-07-28T20:58:31.402Z,23.20
2017-07-28T21:00:59.217Z,24.43
2017-07-28T21:03:26.861Z,29.20
2017-07-28T21:05:54.534Z,26.57
2017-07-28T21:08:22.203Z,24.43
2017-07-28T21:10:49.864Z,22.17
2017-07-28T21:13:17.704Z,21.50
2017-07-28T21:15:45.445Z,16.90
2017-07-28T21:18:13.413Z,26.07
2017-07-28T21:20:41.333Z,17.07
2017-07-28T21:23:09.356Z,26.20
2017-07-28T21:25:37.017Z,26.23
2017-07-28T21:28:04.626Z,17.43
2017-07-28T21:30:32.300Z,13.97
2017-07-28T21:32:59.902Z,15.53
2017-07-28T21:35:27.513Z,16.20
2017-07-28T21:37:55.169Z,17.10
2017-07-28T21:40:22.801Z,25.57
2017-07-28T21:42:50.412Z,17.63
2017-07-28T21:45:18.082Z,23.13
2017-07-28T21:47:45.720Z,18.17
2017-07-28T21:50:13.344Z,15.70
2017-07-28T21:52:40.987Z,18.90
2017-07-28T21:55:08.600Z,16.27
2017-07-28T21:57:36.216Z,28.27
2017-07-28T22:00:03.870Z,17.23
2017-07-28T22:02:31.496Z,21.40
2017-07-28T22:04:59.137Z,25.10
2017-07-28T22:07:26.821Z,17.40
2017-07-28T22:09:54.428Z,18.87
2017-07-28T22:12:22.037Z,18.30
2017-07-28T22:14:49.728Z,17.40
2017-07-28T22:17:17.369Z,15.63
2017-07-28T22:19:44.978Z,20.57
2017-07-28T22:22:12.652Z,14.00
2017-07-28T22:24:40.290Z,12.43
2017-07-28T22:27:07.947Z,18.80
2017-07-28T22:29:35.666Z,18.53
2017-07-28T22:32:03.389Z,17.80
2017-07-28T22:34:31.115Z,21.87
2017-07-28T22:36:59.063Z,17.83
2017-07-28T22:39:26.898Z,21.83
2017-07-28T22:41:54.641Z,18.43
2017-07-28T22:44:22.295Z,19.37
2017-07-28T22:46:49.906Z,13.30
2017-07-28T22:49:17.521Z,11.40
2017-07-28T22:51:45.167Z,11.90
2017-07-28T22:54:12.769Z,14.27
2017-07-28T22:56:40.370Z,29.27
2017-07-28T22:59:08.121Z,23.37
2017-07-28T23:01:35.727Z,15.23
2017-07-28T23:04:03.347Z,17.50
2017-07-28T23:06:31.011Z,10.10
2017-07-28T23:08:58.632Z,13.43
2017-07-28T23:11:26.256Z,11.27
2017-07-28T23:13:53.936Z,15.73
2017-07-28T23:16:21.556Z,8.87
2017-07-28T23:18:49.168Z,28.63
2017-07-28T23:21:16.838Z,12.00
2017-07-28T23:23:44.438Z,9.53
2017-07-28T23:26:12.037Z,12.03
2017-07-28T23:28:39.743Z,18.00
2017-07-28T23:31:07.352Z,16.20
2017-07-28T23:33:34.964Z,22.63
2017-07-28T23:36:02.623Z,22.73
2017-07-28T23:38:30.214Z,8.70
2017-07-28T23:40:57.858Z,8.23
2017-07-28T23:43:25.517Z,13.20
2017-07-28T23:45:53.156Z,13.40
2017-07-28T23:48:20.788Z,15.30
2017-07-28T23:50:48.449Z,9.60
2017-07-28T23:53:16.058Z,12.20
2017-07-28T23:55:43.692Z,13.80
2017-07-28T23:58:11.412Z,26.27
